Time;durP1;ratioP1;P1;durP2;ratioP2;P2;SDS_P1;SDS_P2;PMS_P1;PMS_P2;Temp;Humidity;BMP_temperature;BMP_pressure;BME280_temperature;BME280_humidity;BME280_pressure;Samples;Min_cycle;Max_cycle;Signal;HPM_P1;HPM_P2
2023/04/06 00:01:28;;;;;;;0.80;0.60;;;;;;;;;;5002219;28;20034;-74
2023/04/06 00:03:55;;;;;;;0.88;0.75;;;;;;;;;;5007801;28;20559;-75
2023/04/06 00:06:21;;;;;;;2.60;1.33;;;;;;;;;;5007833;28;20038;-75
2023/04/06 00:08:47;;;;;;;0.77;0.77;;;;;;;;;;4995194;28;20019;-74
2023/04/06 00:11:13;;;;;;;1.10;0.88;;;;;;;;;;4987682;28;20039;-74
2023/04/06 00:13:39;;;;;;;0.63;0.63;;;;;;;;;;4995355;28;20473;-74
2023/04/06 00:16:06;;;;;;;0.60;0.60;;;;;;;;;;5004703;28;20404;-74
2023/04/06 00:18:32;;;;;;;1.73;0.77;;;;;;;;;;5000039;28;20485;-74
2023/04/06 00:20:58;;;;;;;0.85;0.77;;;;;;;;;;5002748;28;20034;-74
2023/04/06 00:23:25;;;;;;;0.85;0.77;;;;;;;;;;4996339;28;20566;-74
2023/04/06 00:25:51;;;;;;;0.90;0.70;;;;;;;;;;5001152;28;20521;-74
2023/04/06 00:28:17;;;;;;;0.77;0.70;;;;;;;;;;4999088;28;20037;-75
2023/04/06 00:30:43;;;;;;;1.70;0.80;;;;;;;;;;5007190;28;20037;-74
2023/04/06 00:33:09;;;;;;;0.88;0.70;;;;;;;;;;5007238;28;20500;-74
2023/04/06 00:35:35;;;;;;;0.70;0.70;;;;;;;;;;5003398;28;20037;-74
2023/04/06 00:38:01;;;;;;;2.80;0.80;;;;;;;;;;4997853;28;20041;-74
2023/04/06 00:40:28;;;;;;;1.33;1.00;;;;;;;;;;5002091;28;20424;-74
2023/04/06 00:42:54;;;;;;;0.70;0.70;;;;;;;;;;5006849;28;20523;-74
2023/04/06 00:45:20;;;;;;;3.20;0.47;;;;;;;;;;5007247;28;20053;-74
2023/04/06 00:47:46;;;;;;;2.20;0.60;;;;;;;;;;5007243;28;20026;-73
2023/04/06 00:50:12;;;;;;;0.60;0.60;;;;;;;;;;4991759;28;20022;-74
2023/04/06 00:52:38;;;;;;;0.93;0.80;;;;;;;;;;5005087;28;20049;-74
2023/04/06 00:55:05;;;;;;;1.17;0.90;;;;;;;;;;4995507;28;20026;-75
2023/04/06 00:57:31;;;;;;;0.90;0.90;;;;;;;;;;5002025;28;20036;-74
2023/04/06 00:59:57;;;;;;;1.65;0.75;;;;;;;;;;5000086;28;20678;-74
2023/04/06 01:02:25;;;;;;;2.63;0.70;;;;;;;;;;5003499;28;20025;-75
2023/04/06 01:04:52;;;;;;;0.82;0.82;;;;;;;;;;4991478;28;20359;-75
2023/04/06 01:07:18;;;;;;;1.15;0.90;;;;;;;;;;5000850;28;20366;-74
2023/04/06 01:09:44;;;;;;;0.98;0.77;;;;;;;;;;5008015;28;20044;-74
2023/04/06 01:12:10;;;;;;;0.50;0.50;;;;;;;;;;5006358;28;20041;-74
2023/04/06 01:14:36;;;;;;;0.93;0.80;;;;;;;;;;5001893;28;20552;-74
2023/04/06 01:17:02;;;;;;;0.63;0.60;;;;;;;;;;4996597;28;20033;-74
2023/04/06 01:19:28;;;;;;;0.70;0.70;;;;;;;;;;4991035;28;20030;-74
2023/04/06 01:21:54;;;;;;;1.45;0.60;;;;;;;;;;4999109;28;20547;-75
2023/04/06 01:24:21;;;;;;;2.08;0.88;;;;;;;;;;4998810;28;20022;-74
2023/04/06 01:26:47;;;;;;;1.23;0.90;;;;;;;;;;5001880;28;20064;-74
2023/04/06 01:29:13;;;;;;;1.33;0.70;;;;;;;;;;5002723;28;20030;-74
2023/04/06 01:31:39;;;;;;;3.58;1.25;;;;;;;;;;4994751;28;20283;-74
2023/04/06 01:34:05;;;;;;;1.58;0.68;;;;;;;;;;5003674;28;20039;-74
2023/04/06 01:36:31;;;;;;;0.65;0.50;;;;;;;;;;5001486;28;20033;-73
2023/04/06 01:38:57;;;;;;;1.42;0.90;;;;;;;;;;5004610;28;20034;-73
2023/04/06 01:41:23;;;;;;;2.67;0.63;;;;;;;;;;5004905;28;20034;-74
2023/04/06 01:43:54;;;;;;;1.13;0.68;;;;;;;;;;5000905;28;20050;-74
2023/04/06 01:46:20;;;;;;;0.85;0.80;;;;;;;;;;4992043;28;20073;-73
2023/04/06 01:48:46;;;;;;;1.45;0.70;;;;;;;;;;4990344;28;20026;-75
2023/04/06 01:51:12;;;;;;;0.70;0.70;;;;;;;;;;4991826;28;20487;-75
2023/04/06 01:53:38;;;;;;;0.90;0.73;;;;;;;;;;4997108;28;20041;-74
2023/04/06 01:56:04;;;;;;;1.00;0.82;;;;;;;;;;5004850;28;20026;-74
2023/04/06 01:58:30;;;;;;;0.85;0.60;;;;;;;;;;4999525;28;20061;-74
2023/04/06 02:00:56;;;;;;;1.52;0.77;;;;;;;;;;5002876;28;20026;-74
2023/04/06 02:03:22;;;;;;;1.38;0.80;;;;;;;;;;5005374;28;20352;-74
2023/04/06 02:05:48;;;;;;;1.45;0.85;;;;;;;;;;5007132;28;20032;-74
2023/04/06 02:08:14;;;;;;;1.08;0.60;;;;;;;;;;5005717;28;20018;-74
2023/04/06 02:10:40;;;;;;;0.57;0.57;;;;;;;;;;5001729;28;20089;-74
2023/04/06 02:13:06;;;;;;;0.75;0.70;;;;;;;;;;4995710;28;20568;-74
2023/04/06 02:15:32;;;;;;;1.05;0.60;;;;;;;;;;5007054;28;20022;-74
2023/04/06 02:17:59;;;;;;;0.40;0.40;;;;;;;;;;4988846;28;20097;-75
2023/04/06 02:20:25;;;;;;;1.65;0.57;;;;;;;;;;4993515;28;20615;-74
2023/04/06 02:22:51;;;;;;;1.30;1.08;;;;;;;;;;4999397;28;20030;-74
2023/04/06 02:25:17;;;;;;;1.10;0.93;;;;;;;;;;4989743;28;20023;-73
2023/04/06 02:27:43;;;;;;;1.35;0.70;;;;;;;;;;5004798;28;20390;-74
2023/04/06 02:30:09;;;;;;;0.70;0.70;;;;;;;;;;5002354;28;20392;-74
2023/04/06 02:32:35;;;;;;;0.85;0.43;;;;;;;;;;4999049;28;20113;-74
2023/04/06 02:35:01;;;;;;;2.30;0.90;;;;;;;;;;4987780;28;20512;-73
2023/04/06 02:37:27;;;;;;;0.75;0.65;;;;;;;;;;4998799;28;20037;-75
2023/04/06 02:39:53;;;;;;;0.70;0.50;;;;;;;;;;4997825;28;20417;-74
2023/04/06 02:42:19;;;;;;;0.85;0.70;;;;;;;;;;5004968;28;20437;-74
2023/04/06 02:44:45;;;;;;;1.00;0.80;;;;;;;;;;5007708;28;20034;-74
2023/04/06 02:47:11;;;;;;;0.88;0.80;;;;;;;;;;4997798;28;20022;-74
2023/04/06 02:49:37;;;;;;;1.42;0.60;;;;;;;;;;4984509;28;20026;-74
2023/04/06 02:52:03;;;;;;;0.80;0.80;;;;;;;;;;4999300;28;20041;-74
2023/04/06 02:54:29;;;;;;;0.70;0.70;;;;;;;;;;4993617;28;20034;-73
2023/04/06 02:56:55;;;;;;;1.42;0.85;;;;;;;;;;5002475;28;20040;-74
2023/04/06 02:59:21;;;;;;;1.00;0.60;;;;;;;;;;5000416;28;20033;-74
2023/04/06 03:01:47;;;;;;;0.85;0.68;;;;;;;;;;5000935;28;20047;-74
2023/04/06 03:04:13;;;;;;;1.00;0.55;;;;;;;;;;5003643;28;20026;-74
2023/04/06 03:06:39;;;;;;;0.68;0.68;;;;;;;;;;4995595;28;20034;-74
2023/04/06 03:09:05;;;;;;;0.93;0.50;;;;;;;;;;4991634;28;20022;-74
2023/04/06 03:11:31;;;;;;;1.13;1.00;;;;;;;;;;5005369;28;20014;-74
2023/04/06 03:13:57;;;;;;;1.98;0.82;;;;;;;;;;4997524;28;20093;-74
2023/04/06 03:16:23;;;;;;;1.00;0.63;;;;;;;;;;5001784;28;20397;-74
2023/04/06 03:18:49;;;;;;;0.45;0.45;;;;;;;;;;5003292;28;20030;-74
2023/04/06 03:21:15;;;;;;;0.77;0.60;;;;;;;;;;5005972;28;20053;-74
2023/04/06 03:23:41;;;;;;;1.67;1.13;;;;;;;;;;4998734;28;20367;-74
2023/04/06 03:26:07;;;;;;;1.20;0.80;;;;;;;;;;5004641;28;20033;-74
2023/04/06 03:28:33;;;;;;;1.23;0.63;;;;;;;;;;5003977;28;20029;-74
2023/04/06 03:31:00;;;;;;;0.52;0.52;;;;;;;;;;5004604;28;20503;-75
2023/04/06 03:33:27;;;;;;;0.57;0.57;;;;;;;;;;5007970;28;20056;-74
2023/04/06 03:35:53;;;;;;;0.85;0.70;;;;;;;;;;5003998;28;20397;-74
2023/04/06 03:38:19;;;;;;;0.50;0.50;;;;;;;;;;4998245;28;20030;-74
2023/04/06 03:40:45;;;;;;;0.65;0.65;;;;;;;;;;5004904;28;20033;-74
2023/04/06 03:43:11;;;;;;;0.70;0.70;;;;;;;;;;5005954;28;20042;-74
2023/04/06 03:45:37;;;;;;;0.63;0.60;;;;;;;;;;5007628;28;20026;-74
2023/04/06 03:48:03;;;;;;;1.13;0.80;;;;;;;;;;5009659;28;20489;-74
2023/04/06 03:50:29;;;;;;;7.53;0.63;;;;;;;;;;5009251;28;20030;-74
2023/04/06 03:52:55;;;;;;;2.15;0.85;;;;;;;;;;5009140;28;20079;-74
2023/04/06 03:55:21;;;;;;;1.23;0.45;;;;;;;;;;5017062;28;20022;-74
2023/04/06 03:57:47;;;;;;;0.40;0.40;;;;;;;;;;5016076;28;20042;-74
2023/04/06 04:00:13;;;;;;;0.68;0.52;;;;;;;;;;5008798;28;20022;-74
2023/04/06 04:02:39;;;;;;;0.80;0.73;;;;;;;;;;5021766;28;20026;-74
2023/04/06 04:05:05;;;;;;;0.50;0.50;;;;;;;;;;5028908;28;20022;-74
2023/04/06 04:07:31;;;;;;;0.60;0.57;;;;;;;;;;5028979;28;20047;-75
2023/04/06 04:09:57;;;;;;;2.28;0.73;;;;;;;;;;5028573;28;20030;-74
2023/04/06 04:12:23;;;;;;;0.93;0.80;;;;;;;;;;5029007;28;20029;-75
2023/04/06 04:14:49;;;;;;;2.35;0.70;;;;;;;;;;5028555;28;20548;-74
2023/04/06 04:17:16;;;;;;;1.33;0.70;;;;;;;;;;5028985;28;20226;-75
2023/04/06 04:19:42;;;;;;;0.55;0.55;;;;;;;;;;5028851;28;20120;-75
2023/04/06 04:22:08;;;;;;;0.60;0.60;;;;;;;;;;5028485;28;20028;-74
2023/04/06 04:24:34;;;;;;;0.75;0.75;;;;;;;;;;5028722;28;20139;-75
2023/04/06 04:27:04;;;;;;;1.15;0.70;;;;;;;;;;5012539;28;20025;-74
2023/04/06 04:29:30;;;;;;;0.47;0.47;;;;;;;;;;5009112;28;20105;-74
2023/04/06 04:31:56;;;;;;;1.65;0.70;;;;;;;;;;5008424;28;20485;-75
2023/04/06 04:34:25;;;;;;;1.23;0.80;;;;;;;;;;5008598;28;20050;-74
2023/04/06 04:36:52;;;;;;;1.50;0.80;;;;;;;;;;5008693;28;20030;-74
2023/04/06 04:39:18;;;;;;;0.70;0.70;;;;;;;;;;5009015;28;20025;-74
2023/04/06 04:41:44;;;;;;;1.52;0.50;;;;;;;;;;5007855;28;20053;-74
2023/04/06 04:44:12;;;;;;;0.55;0.55;;;;;;;;;;5008455;28;20018;-74
2023/04/06 04:46:39;;;;;;;0.88;0.60;;;;;;;;;;5008791;28;20018;-74
2023/04/06 04:49:05;;;;;;;0.95;0.68;;;;;;;;;;5008226;28;20037;-74
2023/04/06 04:51:32;;;;;;;0.90;0.70;;;;;;;;;;5008177;28;20030;-74
2023/04/06 04:53:58;;;;;;;0.88;0.82;;;;;;;;;;5008343;28;20042;-74
2023/04/06 04:56:25;;;;;;;0.70;0.70;;;;;;;;;;5022644;28;20088;-74
2023/04/06 04:58:51;;;;;;;0.60;0.60;;;;;;;;;;5007983;28;20022;-74
2023/04/06 05:01:16;;;;;;;0.65;0.65;;;;;;;;;;5008806;28;20022;-75
2023/04/06 05:03:42;;;;;;;0.70;0.70;;;;;;;;;;5027907;28;20033;-75
2023/04/06 05:06:08;;;;;;;1.80;0.90;;;;;;;;;;5027518;28;20095;-75
2023/04/06 05:08:34;;;;;;;1.05;0.85;;;;;;;;;;5027453;28;20025;-75
2023/04/06 05:11:00;;;;;;;1.83;1.08;;;;;;;;;;5027911;28;20071;-74
2023/04/06 05:13:26;;;;;;;1.02;0.68;;;;;;;;;;5027258;28;20037;-74
2023/04/06 05:15:52;;;;;;;1.15;0.73;;;;;;;;;;5027524;28;20401;-74
2023/04/06 05:18:18;;;;;;;1.00;0.88;;;;;;;;;;5028251;28;20021;-74
2023/04/06 05:20:45;;;;;;;1.08;0.98;;;;;;;;;;5027246;28;20032;-74
2023/04/06 05:23:11;;;;;;;0.82;0.77;;;;;;;;;;5027565;28;20402;-74
2023/04/06 05:25:37;;;;;;;1.10;0.80;;;;;;;;;;5022342;28;20032;-74
2023/04/06 05:28:02;;;;;;;1.63;0.70;;;;;;;;;;5007829;28;20041;-75
2023/04/06 05:30:29;;;;;;;0.82;0.68;;;;;;;;;;5006791;28;20037;-74
2023/04/06 05:32:55;;;;;;;1.25;0.80;;;;;;;;;;5007448;28;20072;-75
2023/04/06 05:35:21;;;;;;;0.95;0.85;;;;;;;;;;5007909;28;20030;-74
2023/04/06 05:37:47;;;;;;;0.93;0.80;;;;;;;;;;5007563;28;20092;-74
2023/04/06 05:40:12;;;;;;;1.42;0.80;;;;;;;;;;5007210;28;20034;-74
2023/04/06 05:42:39;;;;;;;0.70;0.70;;;;;;;;;;5007384;28;20042;-75
2023/04/06 05:45:06;;;;;;;0.98;0.60;;;;;;;;;;5007025;28;20021;-75
2023/04/06 05:47:32;;;;;;;0.98;0.77;;;;;;;;;;5007279;28;20113;-75
2023/04/06 05:49:58;;;;;;;0.93;0.80;;;;;;;;;;5007683;28;20365;-75
2023/04/06 05:52:24;;;;;;;0.68;0.60;;;;;;;;;;5007299;28;20411;-75
2023/04/06 05:54:50;;;;;;;0.73;0.73;;;;;;;;;;5010701;28;20384;-75
2023/04/06 05:57:19;;;;;;;0.80;0.80;;;;;;;;;;5018831;28;20404;-75
2023/04/06 05:59:45;;;;;;;1.23;1.00;;;;;;;;;;5007291;28;20022;-74
2023/04/06 06:02:11;;;;;;;0.93;0.73;;;;;;;;;;5015358;28;20018;-74
2023/04/06 06:04:37;;;;;;;3.08;1.33;;;;;;;;;;5026934;28;20082;-74
2023/04/06 06:07:03;;;;;;;1.13;0.88;;;;;;;;;;5026940;28;20030;-74
2023/04/06 06:09:29;;;;;;;1.13;0.85;;;;;;;;;;5027031;28;20030;-74
2023/04/06 06:11:55;;;;;;;0.80;0.80;;;;;;;;;;5026304;28;20029;-75
2023/04/06 06:14:21;;;;;;;1.25;0.80;;;;;;;;;;5027106;28;20044;-74
2023/04/06 06:16:47;;;;;;;1.40;0.70;;;;;;;;;;5026542;28;20032;-74
2023/04/06 06:19:13;;;;;;;1.13;0.70;;;;;;;;;;5026376;28;20056;-74
2023/04/06 06:21:39;;;;;;;0.98;0.68;;;;;;;;;;5027093;28;20032;-75
2023/04/06 06:24:06;;;;;;;2.00;0.80;;;;;;;;;;5026603;28;20068;-75
2023/04/06 06:26:32;;;;;;;0.93;0.73;;;;;;;;;;5013868;28;20025;-75
2023/04/06 06:28:57;;;;;;;1.40;0.90;;;;;;;;;;5006859;28;20507;-75
2023/04/06 06:31:24;;;;;;;3.53;0.93;;;;;;;;;;5007306;28;20022;-74
2023/04/06 06:33:51;;;;;;;1.45;0.90;;;;;;;;;;5006639;28;20073;-75
2023/04/06 06:36:17;;;;;;;0.90;0.90;;;;;;;;;;5006637;28;20425;-75
2023/04/06 06:38:43;;;;;;;1.15;0.85;;;;;;;;;;5007121;28;20040;-74
2023/04/06 06:41:09;;;;;;;1.48;0.90;;;;;;;;;;5006426;28;20085;-75
2023/04/06 06:43:35;;;;;;;0.70;0.70;;;;;;;;;;5009848;28;20088;-75
2023/04/06 06:46:01;;;;;;;0.80;0.80;;;;;;;;;;5010610;28;20022;-74
2023/04/06 06:48:27;;;;;;;3.08;0.88;;;;;;;;;;5010727;28;20026;-74
2023/04/06 06:50:53;;;;;;;0.70;0.70;;;;;;;;;;5010595;28;20041;-74
2023/04/06 06:53:20;;;;;;;1.90;0.98;;;;;;;;;;5010795;28;20260;-73
2023/04/06 06:55:46;;;;;;;1.92;1.13;;;;;;;;;;5021373;28;20433;-75
2023/04/06 06:58:12;;;;;;;1.60;0.85;;;;;;;;;;5013466;28;20481;-74
2023/04/06 07:00:38;;;;;;;1.65;1.00;;;;;;;;;;5010665;28;20026;-74
2023/04/06 07:03:04;;;;;;;0.77;0.70;;;;;;;;;;5025802;28;20022;-74
2023/04/06 07:05:30;;;;;;;1.10;0.90;;;;;;;;;;5030203;28;20495;-74
2023/04/06 07:07:56;;;;;;;1.23;1.13;;;;;;;;;;5030131;28;20317;-74
2023/04/06 07:10:22;;;;;;;0.95;0.70;;;;;;;;;;5030050;28;20136;-73
2023/04/06 07:12:48;;;;;;;1.10;0.85;;;;;;;;;;5029774;28;20033;-74
2023/04/06 07:15:14;;;;;;;1.40;1.00;;;;;;;;;;5030048;28;20144;-74
2023/04/06 07:17:41;;;;;;;1.60;0.80;;;;;;;;;;5029895;28;20508;-74
2023/04/06 07:20:07;;;;;;;1.08;0.90;;;;;;;;;;5029666;28;20029;-74
2023/04/06 07:22:33;;;;;;;1.83;0.80;;;;;;;;;;5029281;28;20472;-74
2023/04/06 07:24:59;;;;;;;2.28;1.20;;;;;;;;;;5030121;28;20166;-74
2023/04/06 07:27:25;;;;;;;2.75;1.10;;;;;;;;;;5010045;28;20022;-73
2023/04/06 07:29:51;;;;;;;0.65;0.60;;;;;;;;;;5009555;28;20030;-73
2023/04/06 07:32:17;;;;;;;2.25;0.80;;;;;;;;;;5009517;28;20033;-74
2023/04/06 07:34:44;;;;;;;1.23;0.75;;;;;;;;;;5009909;28;20080;-74
2023/04/06 07:37:10;;;;;;;0.93;0.75;;;;;;;;;;5009649;28;20384;-73
2023/04/06 07:39:36;;;;;;;1.90;0.70;;;;;;;;;;5009753;28;20238;-75
2023/04/06 07:42:02;;;;;;;1.05;0.80;;;;;;;;;;5009516;28;20057;-75
2023/04/06 07:44:28;;;;;;;1.33;0.80;;;;;;;;;;5009735;28;20426;-74
2023/04/06 07:46:54;;;;;;;0.80;0.80;;;;;;;;;;5009637;28;20014;-74
2023/04/06 07:49:21;;;;;;;2.60;1.25;;;;;;;;;;5009896;28;20048;-74
2023/04/06 07:51:47;;;;;;;2.33;0.98;;;;;;;;;;5009325;28;20029;-74
2023/04/06 07:54:13;;;;;;;0.68;0.68;;;;;;;;;;5008860;28;20029;-74
2023/04/06 07:56:39;;;;;;;1.48;1.08;;;;;;;;;;5023789;28;20021;-74
2023/04/06 07:59:05;;;;;;;1.10;1.00;;;;;;;;;;4991611;28;20026;-74
2023/04/06 08:01:31;;;;;;;2.60;0.93;;;;;;;;;;5012542;28;20025;-73
2023/04/06 08:03:57;;;;;;;2.15;0.80;;;;;;;;;;5029085;28;20374;-74
2023/04/06 08:06:23;;;;;;;0.98;0.70;;;;;;;;;;5029190;28;20283;-74
2023/04/06 08:08:49;;;;;;;0.80;0.80;;;;;;;;;;5028894;28;20044;-74
2023/04/06 08:11:15;;;;;;;0.75;0.73;;;;;;;;;;5028742;28;20625;-74
2023/04/06 08:13:41;;;;;;;0.70;0.70;;;;;;;;;;5029435;28;20508;-74
2023/04/06 08:16:07;;;;;;;1.48;1.00;;;;;;;;;;5028070;28;20029;-74
2023/04/06 08:18:33;;;;;;;3.28;1.20;;;;;;;;;;5010881;28;20029;-74
2023/04/06 08:20:59;;;;;;;0.68;0.65;;;;;;;;;;5029361;28;20029;-73
2023/04/06 08:23:25;;;;;;;1.13;1.00;;;;;;;;;;5028082;28;20049;-74
2023/04/06 08:25:54;;;;;;;1.95;1.02;;;;;;;;;;5021539;28;20093;-73
2023/04/06 08:28:23;;;;;;;1.05;0.75;;;;;;;;;;5008760;28;20709;-75
2023/04/06 08:30:49;;;;;;;0.65;0.55;;;;;;;;;;5009207;28;20120;-74
2023/04/06 08:33:15;;;;;;;1.20;0.80;;;;;;;;;;5008667;28;20446;-73
2023/04/06 08:35:41;;;;;;;1.70;1.02;;;;;;;;;;5008373;28;20382;-74
2023/04/06 08:38:07;;;;;;;1.00;0.88;;;;;;;;;;5008920;28;20030;-74
2023/04/06 08:40:40;;;;;;;1.10;0.63;;;;;;;;;;5008576;28;20033;-74
2023/04/06 08:43:08;;;;;;;0.82;0.75;;;;;;;;;;5008064;28;20045;-73
2023/04/06 08:45:34;;;;;;;0.47;0.47;;;;;;;;;;5008523;28;20026;-73
2023/04/06 08:48:01;;;;;;;0.63;0.50;;;;;;;;;;5008560;28;20026;-74
2023/04/06 08:50:28;;;;;;;2.78;0.70;;;;;;;;;;5008695;28;20029;-73
2023/04/06 08:52:54;;;;;;;1.73;0.98;;;;;;;;;;5008563;28;20061;-73
2023/04/06 08:55:20;;;;;;;0.55;0.52;;;;;;;;;;5015163;28;20029;-73
2023/04/06 08:57:47;;;;;;;0.73;0.60;;;;;;;;;;5015357;28;20025;-74
2023/04/06 09:00:14;;;;;;;0.52;0.52;;;;;;;;;;5008226;28;20084;-75
2023/04/06 09:02:43;;;;;;;1.73;0.57;;;;;;;;;;5020585;28;20495;-74
2023/04/06 09:05:10;;;;;;;1.58;0.70;;;;;;;;;;5026755;28;20495;-74
2023/04/06 09:07:36;;;;;;;2.42;0.60;;;;;;;;;;5027902;28;20053;-75
2023/04/06 09:10:03;;;;;;;0.70;0.60;;;;;;;;;;5027667;28;20025;-74
2023/04/06 09:12:30;;;;;;;0.60;0.60;;;;;;;;;;5027805;28;20102;-74
2023/04/06 09:14:56;;;;;;;0.85;0.80;;;;;;;;;;5027353;28;20184;-74
2023/04/06 09:17:22;;;;;;;0.43;0.43;;;;;;;;;;5027764;28;20776;-73
2023/04/06 09:19:49;;;;;;;0.88;0.70;;;;;;;;;;5027327;28;20435;-74
2023/04/06 09:22:15;;;;;;;0.60;0.60;;;;;;;;;;5027203;28;20071;-73
2023/04/06 09:24:45;;;;;;;1.10;0.80;;;;;;;;;;5027811;28;20108;-73
2023/04/06 09:27:11;;;;;;;0.98;0.77;;;;;;;;;;5009938;28;20113;-74
2023/04/06 09:29:37;;;;;;;0.68;0.68;;;;;;;;;;5007474;28;20132;-74
2023/04/06 09:32:04;;;;;;;0.70;0.70;;;;;;;;;;5007465;28;20038;-74
2023/04/06 09:34:30;;;;;;;1.83;0.98;;;;;;;;;;5007893;28;20057;-74
2023/04/06 09:36:56;;;;;;;0.80;0.80;;;;;;;;;;5007632;28;20109;-73
2023/04/06 09:39:23;;;;;;;0.50;0.50;;;;;;;;;;5007370;28;20056;-75
2023/04/06 09:41:50;;;;;;;0.52;0.50;;;;;;;;;;5007274;28;20405;-74
2023/04/06 09:44:16;;;;;;;0.43;0.40;;;;;;;;;;5007498;28;20026;-74
2023/04/06 09:46:43;;;;;;;0.63;0.40;;;;;;;;;;5007461;28;20034;-74
2023/04/06 09:49:12;;;;;;;0.47;0.45;;;;;;;;;;5007276;28;20030;-74
2023/04/06 09:51:39;;;;;;;0.60;0.60;;;;;;;;;;4990264;28;20016;-75
2023/04/06 09:54:06;;;;;;;1.27;0.50;;;;;;;;;;5007348;28;20022;-73
2023/04/06 09:56:44;;;;;;;0.55;0.50;;;;;;;;;;5021613;28;20034;-73
2023/04/06 09:59:13;;;;;;;0.65;0.65;;;;;;;;;;5007208;28;20076;-74
2023/04/06 10:01:40;;;;;;;0.80;0.60;;;;;;;;;;5011446;28;20312;-74
2023/04/06 10:04:30;;;;;;;1.75;0.63;;;;;;;;;;5026491;28;20097;-76
2023/04/06 10:06:57;;;;;;;0.60;0.50;;;;;;;;;;5026845;28;20026;-74
2023/04/06 10:09:25;;;;;;;0.60;0.60;;;;;;;;;;5026192;28;20037;-74
2023/04/06 10:11:51;;;;;;;0.88;0.60;;;;;;;;;;5027132;28;20104;-74
2023/04/06 10:14:17;;;;;;;2.45;0.77;;;;;;;;;;5026710;28;20026;-74
2023/04/06 10:16:43;;;;;;;0.68;0.60;;;;;;;;;;5026535;28;20092;-74
2023/04/06 10:19:13;;;;;;;1.30;0.80;;;;;;;;;;5026707;28;20455;-74
2023/04/06 10:21:39;;;;;;;0.73;0.50;;;;;;;;;;5027191;28;20034;-74
2023/04/06 10:24:13;;;;;;;0.63;0.50;;;;;;;;;;5026428;28;20381;-75
2023/04/06 10:26:39;;;;;;;0.40;0.40;;;;;;;;;;5013415;28;20014;-75
2023/04/06 10:29:06;;;;;;;0.40;0.40;;;;;;;;;;5006920;28;20136;-75
2023/04/06 10:31:32;;;;;;;0.82;0.65;;;;;;;;;;5006958;28;20026;-75
2023/04/06 10:33:59;;;;;;;0.68;0.40;;;;;;;;;;5007365;28;20026;-74
2023/04/06 10:36:26;;;;;;;0.82;0.70;;;;;;;;;;5006188;28;20504;-74
2023/04/06 10:38:57;;;;;;;0.70;0.50;;;;;;;;;;5006589;28;20129;-75
2023/04/06 10:41:23;;;;;;;0.75;0.57;;;;;;;;;;5006162;28;20025;-75
2023/04/06 10:43:56;;;;;;;0.55;0.55;;;;;;;;;;5006692;28;20029;-75
2023/04/06 10:46:26;;;;;;;0.80;0.50;;;;;;;;;;5006964;28;20528;-75
2023/04/06 10:48:52;;;;;;;1.38;0.60;;;;;;;;;;5006841;28;20439;-75
2023/04/06 10:51:18;;;;;;;0.40;0.40;;;;;;;;;;5006665;28;20022;-75
2023/04/06 10:53:48;;;;;;;0.38;0.38;;;;;;;;;;5006357;28;20143;-75
2023/04/06 10:56:15;;;;;;;0.65;0.57;;;;;;;;;;5021052;28;20155;-75
2023/04/06 10:58:48;;;;;;;0.82;0.60;;;;;;;;;;5007551;28;20068;-75
2023/04/06 11:01:18;;;;;;;0.50;0.50;;;;;;;;;;5007221;28;20029;-75
2023/04/06 11:03:44;;;;;;;0.60;0.40;;;;;;;;;;5026333;28;20609;-75
2023/04/06 11:06:10;;;;;;;0.57;0.57;;;;;;;;;;5026048;28;20068;-75
2023/04/06 11:08:37;;;;;;;0.40;0.40;;;;;;;;;;5025979;28;20044;-75
2023/04/06 11:11:09;;;;;;;0.63;0.50;;;;;;;;;;5026585;28;20112;-75
2023/04/06 11:13:40;;;;;;;0.70;0.60;;;;;;;;;;5026721;28;20022;-75
2023/04/06 11:16:06;;;;;;;0.60;0.57;;;;;;;;;;5026286;28;20152;-75
2023/04/06 11:18:32;;;;;;;1.38;0.70;;;;;;;;;;5026089;28;20040;-75
2023/04/06 11:20:57;;;;;;;0.65;0.50;;;;;;;;;;5026107;28;20512;-74
2023/04/06 11:23:26;;;;;;;0.60;0.60;;;;;;;;;;5026085;28;20030;-74
2023/04/06 11:25:53;;;;;;;0.40;0.40;;;;;;;;;;5019168;28;20018;-75
2023/04/06 11:28:19;;;;;;;0.40;0.40;;;;;;;;;;5007567;28;20087;-75
2023/04/06 11:30:48;;;;;;;0.30;0.30;;;;;;;;;;5009670;28;20033;-75
2023/04/06 11:33:21;;;;;;;0.68;0.60;;;;;;;;;;5010044;28;20413;-75
2023/04/06 11:35:47;;;;;;;0.80;0.80;;;;;;;;;;5010118;28;20033;-75
2023/04/06 11:38:13;;;;;;;0.65;0.57;;;;;;;;;;5009878;28;20025;-75
2023/04/06 11:40:39;;;;;;;0.40;0.40;;;;;;;;;;5009295;28;20025;-75
2023/04/06 11:43:06;;;;;;;0.50;0.50;;;;;;;;;;5009583;28;20554;-75
2023/04/06 11:45:43;;;;;;;0.65;0.50;;;;;;;;;;5015252;28;20029;-75
2023/04/06 11:48:18;;;;;;;1.35;0.52;;;;;;;;;;5029723;28;20031;-76
2023/04/06 11:50:46;;;;;;;0.80;0.50;;;;;;;;;;5029079;28;20112;-75
2023/04/06 11:53:12;;;;;;;0.45;0.45;;;;;;;;;;5029356;28;20117;-75
2023/04/06 11:55:39;;;;;;;0.98;0.80;;;;;;;;;;5029341;28;20033;-76
2023/04/06 11:58:08;;;;;;;0.68;0.68;;;;;;;;;;5014406;28;20481;-77
2023/04/06 12:00:36;;;;;;;0.40;0.40;;;;;;;;;;5023545;28;20365;-75
2023/04/06 12:03:02;;;;;;;0.40;0.40;;;;;;;;;;5028811;28;20030;-75
2023/04/06 12:05:28;;;;;;;0.63;0.60;;;;;;;;;;5029616;28;20033;-75
2023/04/06 12:07:57;;;;;;;0.50;0.50;;;;;;;;;;5017318;28;20033;-87
2023/04/06 12:10:23;;;;;;;0.80;0.60;;;;;;;;;;5023738;28;20412;-85
2023/04/06 12:12:49;;;;;;;1.00;0.70;;;;;;;;;;5018273;28;20036;-76
2023/04/06 12:15:15;;;;;;;0.50;0.50;;;;;;;;;;5022837;28;20022;-76
2023/04/06 12:17:41;;;;;;;1.27;0.60;;;;;;;;;;5027316;28;20124;-76
2023/04/06 12:20:07;;;;;;;0.40;0.40;;;;;;;;;;5029326;28;20036;-76
2023/04/06 12:22:33;;;;;;;0.50;0.50;;;;;;;;;;5026474;28;20033;-77
2023/04/06 12:24:59;;;;;;;0.98;0.82;;;;;;;;;;5023902;28;20025;-76
2023/04/06 12:27:25;;;;;;;0.60;0.60;;;;;;;;;;5023233;28;20037;-76
2023/04/06 12:29:51;;;;;;;2.20;0.70;;;;;;;;;;5027644;28;20361;-76
2023/04/06 12:32:17;;;;;;;0.60;0.60;;;;;;;;;;5027732;28;20029;-78
2023/04/06 12:34:43;;;;;;;1.20;0.63;;;;;;;;;;5029093;28;20485;-77
2023/04/06 12:37:09;;;;;;;0.52;0.50;;;;;;;;;;5024856;28;20032;-77
2023/04/06 12:39:35;;;;;;;0.82;0.70;;;;;;;;;;5014239;28;20030;-76
2023/04/06 12:42:02;;;;;;;0.47;0.47;;;;;;;;;;5027161;28;20718;-76
2023/04/06 12:44:28;;;;;;;0.82;0.55;;;;;;;;;;5022501;28;20434;-76
2023/04/06 12:46:55;;;;;;;0.93;0.80;;;;;;;;;;5023960;28;20030;-76
2023/04/06 12:49:21;;;;;;;0.82;0.50;;;;;;;;;;5009170;28;20017;-77
2023/04/06 12:51:47;;;;;;;0.52;0.50;;;;;;;;;;5015325;28;20042;-76
2023/04/06 12:54:13;;;;;;;0.77;0.52;;;;;;;;;;5025505;28;20037;-77
2023/04/06 12:56:39;;;;;;;2.40;0.73;;;;;;;;;;5027610;28;20049;-78
2023/04/06 12:59:06;;;;;;;0.47;0.47;;;;;;;;;;5025031;28;20742;-77
2023/04/06 13:01:32;;;;;;;0.40;0.40;;;;;;;;;;5001098;28;20251;-77
2023/04/06 13:03:59;;;;;;;0.73;0.55;;;;;;;;;;5025702;28;20026;-78
2023/04/06 13:06:28;;;;;;;0.55;0.40;;;;;;;;;;5014461;28;20420;-76
2023/04/06 13:08:54;;;;;;;1.13;0.60;;;;;;;;;;5010607;28;20396;-77
2023/04/06 13:11:21;;;;;;;0.40;0.40;;;;;;;;;;5028464;28;20024;-77
2023/04/06 13:13:47;;;;;;;1.88;0.75;;;;;;;;;;5028142;28;20508;-77
2023/04/06 13:16:13;;;;;;;0.60;0.60;;;;;;;;;;5025556;28;20029;-77
2023/04/06 13:18:40;;;;;;;0.50;0.50;;;;;;;;;;5028598;28;20480;-77
2023/04/06 13:21:06;;;;;;;0.55;0.55;;;;;;;;;;5026881;28;20152;-77
2023/04/06 13:23:32;;;;;;;0.70;0.50;;;;;;;;;;5026684;28;20026;-76
2023/04/06 13:26:03;;;;;;;1.30;0.65;;;;;;;;;;5019804;28;20026;-76
2023/04/06 13:28:29;;;;;;;0.87;0.80;;;;;;;;;;5028363;28;20017;-76
2023/04/06 13:30:55;;;;;;;3.92;0.75;;;;;;;;;;5020820;28;20777;-76
2023/04/06 13:33:22;;;;;;;0.90;0.60;;;;;;;;;;5014643;28;20038;-77
2023/04/06 13:35:48;;;;;;;0.40;0.40;;;;;;;;;;5008466;28;20025;-77
2023/04/06 13:38:14;;;;;;;2.45;0.68;;;;;;;;;;5012427;28;20024;-78
2023/04/06 13:40:40;;;;;;;0.85;0.55;;;;;;;;;;5021426;28;20054;-77
2023/04/06 13:43:06;;;;;;;2.35;0.70;;;;;;;;;;5023501;28;20080;-77
2023/04/06 13:45:32;;;;;;;0.57;0.57;;;;;;;;;;5027996;28;20446;-76
2023/04/06 13:47:58;;;;;;;0.50;0.50;;;;;;;;;;5024057;28;20022;-77
2023/04/06 13:50:27;;;;;;;0.40;0.40;;;;;;;;;;5018638;28;20136;-79
2023/04/06 13:52:53;;;;;;;1.23;1.00;;;;;;;;;;5020037;28;20681;-77
2023/04/06 13:55:19;;;;;;;0.75;0.40;;;;;;;;;;5020606;28;20437;-76
2023/04/06 13:57:45;;;;;;;0.50;0.50;;;;;;;;;;5022462;28;20120;-82
2023/04/06 14:00:12;;;;;;;0.80;0.50;;;;;;;;;;5019859;28;20484;-75
2023/04/06 14:02:39;;;;;;;0.82;0.73;;;;;;;;;;5019117;28;20038;-77
2023/04/06 14:05:05;;;;;;;0.95;0.70;;;;;;;;;;5022159;28;20029;-78
2023/04/06 14:07:31;;;;;;;1.38;0.60;;;;;;;;;;5023420;28;20124;-77
2023/04/06 14:09:57;;;;;;;0.82;0.50;;;;;;;;;;5013332;28;20541;-76
2023/04/06 14:12:23;;;;;;;1.40;0.50;;;;;;;;;;5017233;28;20029;-78
2023/04/06 14:14:49;;;;;;;0.60;0.60;;;;;;;;;;5024323;28;20679;-80
2023/04/06 14:17:15;;;;;;;1.13;0.88;;;;;;;;;;5016730;28;21044;-77
2023/04/06 14:19:42;;;;;;;1.02;0.63;;;;;;;;;;5015452;28;20038;-76
2023/04/06 14:22:08;;;;;;;0.85;0.73;;;;;;;;;;5022734;28;20095;-80
2023/04/06 14:24:35;;;;;;;1.00;0.70;;;;;;;;;;5018362;28;20484;-82
2023/04/06 14:27:02;;;;;;;0.60;0.60;;;;;;;;;;5019444;28;20034;-84
2023/04/06 14:29:28;;;;;;;1.10;1.00;;;;;;;;;;5005230;28;20030;-89
2023/04/06 14:31:59;;;;;;;4.05;1.52;;;;;;;;;;5009736;28;20038;-81
2023/04/06 14:34:26;;;;;;;1.63;1.27;;;;;;;;;;5008094;28;20021;-88
2023/04/06 14:36:52;;;;;;;4.22;1.20;;;;;;;;;;5023363;28;20022;-93
2023/04/06 14:39:18;;;;;;;1.50;1.20;;;;;;;;;;5017550;28;20041;-80